createdAt,value
2023-05-23T00:00:02.053Z,5.20
2023-05-23T00:02:30.776Z,5.60
2023-05-23T00:04:59.284Z,5.50
2023-05-23T00:07:27.860Z,5.80
2023-05-23T00:09:56.178Z,6.00
2023-05-23T00:12:24.638Z,6.30
2023-05-23T00:14:53.721Z,5.90
2023-05-23T00:17:25.539Z,5.30
2023-05-23T00:19:56.172Z,4.80
2023-05-23T00:22:24.791Z,6.10
2023-05-23T00:24:53.209Z,6.90
2023-05-23T00:27:21.608Z,6.80
2023-05-23T00:29:49.973Z,6.70
2023-05-23T00:32:18.387Z,6.30
2023-05-23T00:34:46.838Z,6.40
2023-05-23T00:37:15.286Z,6.50
2023-05-23T00:39:43.637Z,6.10
2023-05-23T00:42:12.157Z,6.60
2023-05-23T00:44:40.698Z,6.10
2023-05-23T00:47:09.265Z,6.10
2023-05-23T00:49:37.758Z,6.00
2023-05-23T00:52:07.034Z,6.30
2023-05-23T00:54:37.110Z,6.00
2023-05-23T00:57:05.916Z,6.10
2023-05-23T00:59:37.000Z,6.20
2023-05-23T01:02:05.652Z,5.90
2023-05-23T01:04:34.366Z,7.00
2023-05-23T01:07:03.212Z,5.60
2023-05-23T01:09:32.317Z,5.70
2023-05-23T01:12:11.031Z,6.40
2023-05-23T01:15:15.279Z,6.80
2023-05-23T01:18:03.329Z,6.40
2023-05-23T01:20:38.297Z,6.10
2023-05-23T01:23:41.678Z,6.30
2023-05-23T01:27:01.248Z,6.10
2023-05-23T01:29:34.787Z,5.80
2023-05-23T01:32:11.576Z,7.50
2023-05-23T01:34:41.493Z,8.00
2023-05-23T01:37:11.751Z,8.40
2023-05-23T01:39:40.798Z,7.60
2023-05-23T01:42:09.635Z,7.50
2023-05-23T01:44:38.711Z,8.00
2023-05-23T01:47:10.679Z,8.30
2023-05-23T01:49:40.998Z,7.10
2023-05-23T01:52:13.296Z,7.80
2023-05-23T01:54:43.862Z,7.00
2023-05-23T01:57:13.748Z,7.60
2023-05-23T01:59:42.136Z,6.30
2023-05-23T02:02:11.449Z,6.10
2023-05-23T02:04:39.838Z,7.40
2023-05-23T02:07:08.290Z,6.80
2023-05-23T02:09:36.692Z,6.80
2023-05-23T02:12:05.361Z,6.70
2023-05-23T02:14:33.754Z,6.10
2023-05-23T02:17:02.205Z,6.30
2023-05-23T02:19:30.767Z,6.70
2023-05-23T02:21:59.380Z,7.00
2023-05-23T02:24:27.855Z,7.00
2023-05-23T02:26:56.505Z,7.20
2023-05-23T02:29:24.964Z,7.70
2023-05-23T02:31:53.313Z,6.30
2023-05-23T02:34:21.706Z,7.30
2023-05-23T02:36:50.074Z,7.00
2023-05-23T02:39:19.274Z,6.90
2023-05-23T02:41:47.651Z,7.50
2023-05-23T02:44:16.183Z,7.40
2023-05-23T02:46:44.626Z,7.30
2023-05-23T02:49:13.049Z,5.90
2023-05-23T02:51:41.378Z,7.90
2023-05-23T02:54:09.832Z,7.30
2023-05-23T02:56:38.456Z,6.50
2023-05-23T02:59:07.494Z,7.50
2023-05-23T03:01:36.252Z,6.60
2023-05-23T03:04:04.697Z,8.10
2023-05-23T03:06:34.431Z,7.20
2023-05-23T03:09:03.422Z,7.70
2023-05-23T03:11:31.904Z,7.30
2023-05-23T03:14:00.448Z,6.80
2023-05-23T03:16:29.126Z,7.60
2023-05-23T03:18:57.913Z,7.00
2023-05-23T03:21:26.389Z,8.10
2023-05-23T03:23:54.959Z,6.70
2023-05-23T03:26:24.042Z,7.20
2023-05-23T03:28:52.585Z,7.20
2023-05-23T03:31:21.099Z,7.10
2023-05-23T03:33:49.622Z,7.50
2023-05-23T03:36:18.504Z,8.10
2023-05-23T03:38:47.016Z,7.90
2023-05-23T03:41:15.575Z,7.10
2023-05-23T03:43:44.476Z,7.40
2023-05-23T03:46:13.110Z,6.90
2023-05-23T03:48:41.690Z,7.00
2023-05-23T03:51:10.175Z,7.60
2023-05-23T03:53:38.637Z,8.60
2023-05-23T03:56:07.271Z,8.20
2023-05-23T03:58:35.718Z,7.50
2023-05-23T04:01:04.839Z,8.80
2023-05-23T04:03:33.444Z,7.60
2023-05-23T04:06:02.380Z,8.20
2023-05-23T04:08:34.107Z,8.50
2023-05-23T04:11:03.058Z,8.20
2023-05-23T04:13:31.889Z,7.00
2023-05-23T04:16:02.344Z,8.00
2023-05-23T04:18:30.816Z,7.20
2023-05-23T04:21:00.287Z,7.20
2023-05-23T04:23:28.762Z,8.30
2023-05-23T04:25:57.566Z,7.70
2023-05-23T04:28:28.979Z,7.60
2023-05-23T04:30:59.271Z,7.90
2023-05-23T04:33:28.299Z,7.20
2023-05-23T04:35:57.431Z,8.60
2023-05-23T04:38:25.824Z,9.00
2023-05-23T04:40:54.547Z,7.70
2023-05-23T04:43:26.543Z,8.00
2023-05-23T04:45:55.279Z,8.20
2023-05-23T04:48:23.714Z,7.60
2023-05-23T04:50:52.749Z,7.70
2023-05-23T04:53:21.131Z,8.50
2023-05-23T04:55:49.550Z,9.00
2023-05-23T04:58:18.222Z,7.70
2023-05-23T05:00:46.586Z,8.60
2023-05-23T05:03:16.254Z,8.50
2023-05-23T05:05:44.652Z,8.20
2023-05-23T05:08:14.389Z,8.00
2023-05-23T05:10:43.059Z,8.20
2023-05-23T05:13:11.626Z,8.30
2023-05-23T05:15:39.994Z,8.40
2023-05-23T05:36:08.633Z,8.20
2023-05-23T05:38:38.362Z,9.10
2023-05-23T05:41:09.060Z,8.90
2023-05-23T05:43:38.011Z,9.60
2023-05-23T05:46:06.603Z,9.20
2023-05-23T05:48:35.811Z,9.40
2023-05-23T05:51:06.412Z,9.40
2023-05-23T05:53:35.115Z,8.40
2023-05-23T05:56:03.847Z,8.70
2023-05-23T05:58:32.423Z,9.90
2023-05-23T06:01:00.872Z,9.60
2023-05-23T06:03:29.867Z,10.20
2023-05-23T06:06:23.550Z,8.50
2023-05-23T06:08:52.231Z,9.80
2023-05-23T06:11:46.140Z,8.70
2023-05-23T06:14:15.404Z,8.60
2023-05-23T06:16:44.808Z,9.00
2023-05-23T06:19:13.389Z,10.00
2023-05-23T06:21:41.808Z,9.00
2023-05-23T06:24:10.198Z,10.60
2023-05-23T06:26:38.957Z,8.90
2023-05-23T06:29:07.364Z,9.10
2023-05-23T06:31:35.946Z,8.50
2023-05-23T06:34:04.343Z,10.10
2023-05-23T06:36:32.894Z,9.10
2023-05-23T06:39:01.339Z,9.30
2023-05-23T06:41:29.809Z,8.80
2023-05-23T06:43:58.232Z,10.10
2023-05-23T06:46:26.883Z,10.00
2023-05-23T06:49:06.583Z,9.70
2023-05-23T06:51:36.122Z,10.20
2023-05-23T06:54:05.884Z,8.70
2023-05-23T06:56:34.473Z,10.00
2023-05-23T06:59:02.949Z,9.80
2023-05-23T07:01:31.635Z,10.80
2023-05-23T07:04:00.525Z,10.40
2023-05-23T07:06:32.180Z,9.70
2023-05-23T07:09:01.057Z,10.30
2023-05-23T07:11:29.652Z,9.90
2023-05-23T07:13:59.659Z,9.40
2023-05-23T07:16:28.183Z,10.30
2023-05-23T07:20:50.064Z,9.60
2023-05-23T07:23:18.804Z,8.90
2023-05-23T07:26:01.258Z,9.30
2023-05-23T07:28:31.479Z,8.80
2023-05-23T07:31:00.011Z,8.30
2023-05-23T07:33:28.608Z,7.80
2023-05-23T07:35:57.062Z,7.80
2023-05-23T07:38:27.042Z,7.20
2023-05-23T07:41:07.376Z,7.50
2023-05-23T07:43:41.066Z,7.30
2023-05-23T07:46:09.945Z,8.80
2023-05-23T07:48:38.925Z,6.60
2023-05-23T07:51:07.880Z,7.60
2023-05-23T07:53:40.254Z,7.30
2023-05-23T07:56:08.895Z,7.60
2023-05-23T08:06:56.327Z,7.60
2023-05-23T08:09:32.724Z,6.40
2023-05-23T08:12:01.838Z,5.90
2023-05-23T08:14:42.365Z,7.10
2023-05-23T08:17:19.307Z,7.50
2023-05-23T08:19:48.567Z,6.40
2023-05-23T08:22:17.170Z,6.90
2023-05-23T08:24:45.892Z,6.20
2023-05-23T08:27:14.477Z,6.30
2023-05-23T08:29:44.357Z,6.30
2023-05-23T08:32:12.978Z,5.70
2023-05-23T08:34:42.273Z,5.40
2023-05-23T08:37:11.207Z,6.50
2023-05-23T08:39:40.423Z,6.00
2023-05-23T08:42:09.406Z,6.10
2023-05-23T08:44:40.721Z,6.00
2023-05-23T08:47:17.539Z,5.70
2023-05-23T08:49:46.464Z,6.60
2023-05-23T08:52:18.267Z,6.70
2023-05-23T08:54:46.828Z,6.70
2023-05-23T08:57:15.901Z,6.80
2023-05-23T08:59:47.199Z,6.90
2023-05-23T09:02:16.659Z,7.50
2023-05-23T09:04:45.233Z,7.80
2023-05-23T09:07:17.023Z,10.30
2023-05-23T09:09:45.616Z,7.60
2023-05-23T09:12:16.569Z,8.60
2023-05-23T09:14:46.280Z,7.40
2023-05-23T09:17:21.498Z,8.10
2023-05-23T09:19:50.329Z,8.50
2023-05-23T09:22:28.147Z,9.20
2023-05-23T09:24:57.531Z,8.60
2023-05-23T09:27:26.034Z,7.40
2023-05-23T09:29:54.680Z,8.80
2023-05-23T09:32:23.282Z,9.50
2023-05-23T09:34:57.936Z,7.90
2023-05-23T09:37:36.086Z,8.50
2023-05-23T09:40:15.283Z,7.40
2023-05-23T09:42:48.590Z,7.10
2023-05-23T09:45:17.326Z,8.70
2023-05-23T09:47:53.017Z,8.50
2023-05-23T09:50:23.083Z,9.10
2023-05-23T09:52:54.150Z,9.40
2023-05-23T09:55:23.600Z,9.90
2023-05-23T10:13:31.780Z,12.70
2023-05-23T10:16:15.335Z,12.20
2023-05-23T10:18:48.898Z,11.60
2023-05-23T10:21:25.748Z,10.00
2023-05-23T10:23:55.534Z,10.10
2023-05-23T10:26:24.280Z,10.60
2023-05-23T10:28:54.108Z,9.50
2023-05-23T10:31:24.268Z,8.70
2023-05-23T10:34:11.390Z,8.00
2023-05-23T10:36:59.605Z,9.60
2023-05-23T10:40:06.204Z,11.10
2023-05-23T10:42:56.896Z,10.90
2023-05-23T10:45:25.795Z,13.20
2023-05-23T10:47:54.434Z,13.40
2023-05-23T10:50:41.965Z,34.40
2023-05-23T10:53:16.625Z,27.70
2023-05-23T10:55:54.087Z,12.50
2023-05-23T10:58:23.558Z,13.50
2023-05-23T11:00:55.032Z,11.50
2023-05-23T11:03:47.051Z,13.30
2023-05-23T11:06:44.572Z,13.40
2023-05-23T11:09:22.396Z,12.30
2023-05-23T11:11:51.278Z,11.70
2023-05-23T11:14:38.340Z,11.00
2023-05-23T11:17:13.225Z,11.00
2023-05-23T11:22:30.856Z,11.30
2023-05-23T11:25:08.091Z,9.70
2023-05-23T11:27:41.633Z,10.60
2023-05-23T11:30:18.224Z,9.80
2023-05-23T11:32:53.281Z,9.80
2023-05-23T11:35:22.254Z,9.80
2023-05-23T11:37:50.911Z,10.10
2023-05-23T11:40:33.070Z,10.80
2023-05-23T11:43:06.177Z,9.20
2023-05-23T11:45:36.939Z,9.10
2023-05-23T11:48:11.914Z,8.30
2023-05-23T11:50:46.196Z,7.80
2023-05-23T11:53:18.772Z,7.90
2023-05-23T11:56:02.925Z,9.70
2023-05-23T12:01:09.603Z,8.40
2023-05-23T12:03:50.760Z,8.60
2023-05-23T12:06:28.856Z,8.40
2023-05-23T12:08:59.622Z,10.00
2023-05-23T12:11:32.921Z,8.60
2023-05-23T12:14:06.799Z,7.90
2023-05-23T12:16:40.140Z,7.20
2023-05-23T12:19:20.865Z,8.50
2023-05-23T12:21:50.392Z,8.40
2023-05-23T12:24:27.697Z,8.00
2023-05-23T12:27:08.104Z,10.70
2023-05-23T12:29:39.565Z,9.60
2023-05-23T12:32:08.883Z,7.70
2023-05-23T12:34:43.857Z,7.20
2023-05-23T12:37:20.145Z,7.20
2023-05-23T12:39:49.679Z,8.20
2023-05-23T12:42:18.990Z,8.80
2023-05-23T12:44:54.290Z,7.50
2023-05-23T12:47:25.757Z,7.80
2023-05-23T12:49:55.367Z,8.30
2023-05-23T12:52:23.865Z,7.40
2023-05-23T12:54:52.403Z,6.20
2023-05-23T12:57:21.151Z,7.60
2023-05-23T12:59:50.543Z,6.80
2023-05-23T13:02:19.988Z,7.60
2023-05-23T13:04:49.203Z,7.90
2023-05-23T13:07:20.444Z,7.50
2023-05-23T13:09:48.933Z,7.80
2023-05-23T13:12:17.559Z,8.10
2023-05-23T13:14:46.206Z,8.10
2023-05-23T13:17:22.889Z,8.20
2023-05-23T13:19:54.475Z,7.30
2023-05-23T13:22:23.667Z,8.10
2023-05-23T13:24:52.336Z,8.20
2023-05-23T13:27:20.816Z,9.00
2023-05-23T13:29:50.587Z,6.70
2023-05-23T13:32:23.122Z,7.80
2023-05-23T13:34:52.117Z,8.00
2023-05-23T13:37:21.006Z,7.80
2023-05-23T13:39:49.772Z,8.40
2023-05-23T13:42:21.051Z,7.90
2023-05-23T13:44:52.809Z,7.50
2023-05-23T13:47:21.898Z,8.40
2023-05-23T13:49:51.086Z,7.20
2023-05-23T13:52:21.582Z,8.20
2023-05-23T13:54:50.387Z,12.60
2023-05-23T13:57:21.355Z,8.30
2023-05-23T13:59:52.936Z,7.10
2023-05-23T14:02:22.904Z,8.20
2023-05-23T14:04:51.686Z,7.90
2023-05-23T14:07:23.568Z,9.10
2023-05-23T14:09:55.098Z,7.90
2023-05-23T14:12:26.924Z,12.10
2023-05-23T14:14:55.369Z,7.50
2023-05-23T14:17:27.460Z,8.00
2023-05-23T14:19:59.615Z,8.00
2023-05-23T14:22:28.523Z,7.60
2023-05-23T14:24:58.832Z,8.40
2023-05-23T14:27:27.384Z,7.50
2023-05-23T14:29:56.079Z,7.70
2023-05-23T14:32:26.015Z,7.10
2023-05-23T14:34:55.612Z,7.80
2023-05-23T14:37:24.509Z,7.30
2023-05-23T14:42:28.516Z,7.20
2023-05-23T14:45:01.379Z,8.70
2023-05-23T14:47:30.875Z,7.10
2023-05-23T14:49:59.789Z,8.00
2023-05-23T14:52:29.569Z,8.30
2023-05-23T14:54:58.191Z,6.00
2023-05-23T14:57:29.884Z,6.00
2023-05-23T15:00:04.300Z,6.70
2023-05-23T15:02:33.533Z,6.90
2023-05-23T15:05:03.526Z,6.90
2023-05-23T15:07:38.634Z,7.40
2023-05-23T15:10:10.400Z,8.00
2023-05-23T15:12:39.101Z,6.80
2023-05-23T15:15:24.771Z,10.40
2023-05-23T15:17:53.982Z,8.10
2023-05-23T15:20:23.863Z,8.00
2023-05-23T15:22:52.458Z,7.30
2023-05-23T15:25:33.942Z,8.40
2023-05-23T15:28:12.140Z,8.60
2023-05-23T15:30:51.076Z,8.80
2023-05-23T15:33:20.359Z,9.60
2023-05-23T15:35:49.126Z,9.00
2023-05-23T15:38:20.152Z,9.80
2023-05-23T15:40:52.176Z,8.20
2023-05-23T15:43:24.349Z,10.30
2023-05-23T15:46:04.405Z,8.60
2023-05-23T15:48:36.535Z,7.90
2023-05-23T15:51:07.582Z,8.00
2023-05-23T15:53:47.884Z,8.70
2023-05-23T15:56:27.909Z,7.90
2023-05-23T15:59:01.310Z,8.20
2023-05-23T16:01:30.979Z,8.20
2023-05-23T16:04:02.588Z,8.70
2023-05-23T16:06:34.051Z,8.70
2023-05-23T16:09:06.906Z,8.90
2023-05-23T16:11:35.567Z,10.60
2023-05-23T16:14:05.949Z,8.60
2023-05-23T16:16:41.307Z,9.50
2023-05-23T16:19:15.111Z,9.90
2023-05-23T16:21:43.950Z,9.00
2023-05-23T16:24:14.269Z,9.10
2023-05-23T16:26:43.032Z,8.20
2023-05-23T16:29:12.362Z,8.30
2023-05-23T16:31:47.714Z,8.30
2023-05-23T16:34:16.405Z,9.40
2023-05-23T16:36:44.988Z,7.60
2023-05-23T16:39:16.219Z,8.70
2023-05-23T16:41:46.095Z,8.70
2023-05-23T16:44:14.547Z,10.00
2023-05-23T16:46:43.612Z,9.30
2023-05-23T16:49:12.501Z,9.50
2023-05-23T16:51:45.356Z,10.50
2023-05-23T16:56:44.554Z,10.50
2023-05-23T16:59:13.319Z,10.20
2023-05-23T17:01:43.547Z,12.10
2023-05-23T17:04:13.229Z,11.70
2023-05-23T17:06:41.730Z,11.90
2023-05-23T17:09:11.130Z,12.20
2023-05-23T17:11:39.874Z,11.20
2023-05-23T17:14:11.147Z,10.50
2023-05-23T17:16:42.012Z,10.00
2023-05-23T17:19:15.246Z,11.20
2023-05-23T17:21:44.053Z,11.20
2023-05-23T17:24:16.307Z,12.10
2023-05-23T17:26:47.606Z,11.90
2023-05-23T17:29:17.509Z,11.70
2023-05-23T17:31:46.762Z,12.40
2023-05-23T17:34:18.401Z,11.80
2023-05-23T17:36:46.825Z,11.90
2023-05-23T17:39:15.472Z,11.20
2023-05-23T17:41:45.353Z,12.30
2023-05-23T17:44:14.631Z,13.90
2023-05-23T17:46:46.514Z,11.70
2023-05-23T17:49:15.617Z,10.70
2023-05-23T17:51:45.359Z,12.50
2023-05-23T17:54:15.459Z,11.70
2023-05-23T17:56:44.049Z,12.00
2023-05-23T17:59:16.609Z,13.00
2023-05-23T18:01:45.295Z,13.10
2023-05-23T18:04:29.434Z,12.80
2023-05-23T18:06:58.072Z,13.90
2023-05-23T18:09:31.369Z,14.00
2023-05-23T18:12:00.154Z,13.00
2023-05-23T18:14:28.704Z,13.00
2023-05-23T18:16:57.167Z,13.90
2023-05-23T18:19:55.686Z,14.40
2023-05-23T18:22:26.863Z,14.10
2023-05-23T18:25:02.868Z,14.30
2023-05-23T18:27:31.815Z,14.90
2023-05-23T18:30:03.412Z,11.70
2023-05-23T18:32:39.186Z,12.30
2023-05-23T18:35:08.976Z,11.80
2023-05-23T18:37:38.798Z,11.10
2023-05-23T18:40:09.825Z,10.60
2023-05-23T18:42:38.437Z,10.30
2023-05-23T18:45:08.338Z,10.70
2023-05-23T18:47:46.637Z,11.00
2023-05-23T18:50:15.677Z,10.20
2023-05-23T18:52:44.120Z,11.50
2023-05-23T18:55:13.029Z,10.90
2023-05-23T18:57:41.906Z,10.30
2023-05-23T19:00:11.225Z,10.90
2023-05-23T19:02:44.534Z,10.70
2023-05-23T19:05:13.891Z,10.80
2023-05-23T19:07:47.784Z,10.20
2023-05-23T19:10:16.334Z,11.00
2023-05-23T19:12:44.842Z,11.10
2023-05-23T19:15:15.252Z,11.20
2023-05-23T19:17:46.733Z,11.10
2023-05-23T19:20:20.021Z,10.80
2023-05-23T19:22:52.501Z,11.10
2023-05-23T19:34:49.690Z,10.60
2023-05-23T19:37:19.054Z,9.90
2023-05-23T19:39:48.872Z,10.20
2023-05-23T19:42:17.749Z,9.90
2023-05-23T19:44:46.252Z,11.40
2023-05-23T19:47:14.813Z,10.00
2023-05-23T19:49:44.097Z,10.00
2023-05-23T19:52:12.729Z,8.70
2023-05-23T19:54:41.356Z,9.70
2023-05-23T19:57:10.281Z,10.00
2023-05-23T19:59:38.755Z,9.90
2023-05-23T20:02:07.333Z,9.00
2023-05-23T20:04:35.802Z,9.00
2023-05-23T20:07:04.695Z,8.60
2023-05-23T20:09:33.829Z,8.80
2023-05-23T20:12:04.148Z,8.90
2023-05-23T20:14:34.217Z,8.30
2023-05-23T20:17:02.632Z,8.70
2023-05-23T20:19:35.206Z,9.40
2023-05-23T20:22:06.470Z,9.90
2023-05-23T20:24:35.215Z,8.90
2023-05-23T20:27:05.238Z,8.70
2023-05-23T20:29:35.142Z,9.20
2023-05-23T20:32:04.346Z,10.10
2023-05-23T20:34:33.276Z,9.10
2023-05-23T20:37:05.192Z,8.90
2023-05-23T20:39:33.699Z,9.30
2023-05-23T20:42:02.230Z,9.00
2023-05-23T20:44:31.827Z,10.30
2023-05-23T20:47:00.984Z,13.60
2023-05-23T20:49:35.013Z,14.10
2023-05-23T20:52:06.166Z,12.30
2023-05-23T20:54:37.940Z,9.80
2023-05-23T20:57:09.333Z,11.70
2023-05-23T20:59:38.553Z,10.30
2023-05-23T21:02:09.751Z,11.10
2023-05-23T21:04:38.654Z,11.80
2023-05-23T21:07:07.114Z,11.10
2023-05-23T21:09:35.827Z,11.80
2023-05-23T21:12:05.092Z,12.60
2023-05-23T21:14:33.747Z,12.20
2023-05-23T21:17:02.368Z,12.80
2023-05-23T21:19:31.091Z,13.30
2023-05-23T21:21:59.503Z,13.20
2023-05-23T21:24:29.551Z,12.60
2023-05-23T21:26:58.094Z,13.60
2023-05-23T21:29:26.658Z,13.30
2023-05-23T21:31:55.206Z,14.40
2023-05-23T21:34:24.585Z,14.30
2023-05-23T21:36:53.535Z,12.90
2023-05-23T21:39:21.970Z,14.10
2023-05-23T21:41:51.809Z,16.00
2023-05-23T21:44:20.490Z,14.50
2023-05-23T21:46:49.010Z,14.30
2023-05-23T21:49:17.672Z,14.70
2023-05-23T21:51:46.174Z,15.30
2023-05-23T21:54:16.964Z,14.80
2023-05-23T21:56:45.471Z,15.70
2023-05-23T21:59:14.078Z,13.90
2023-05-23T22:01:42.655Z,15.10
2023-05-23T22:04:11.497Z,14.70
2023-05-23T22:06:39.944Z,15.90
2023-05-23T22:09:11.704Z,17.80
2023-05-23T22:11:43.112Z,14.70
2023-05-23T22:14:11.859Z,17.20
2023-05-23T22:16:41.200Z,18.60
2023-05-23T22:19:10.413Z,19.20
2023-05-23T22:21:41.960Z,19.10
2023-05-23T22:24:10.547Z,19.60
2023-05-23T22:26:41.713Z,17.40
2023-05-23T22:29:10.574Z,18.50
2023-05-23T22:31:39.590Z,18.10
2023-05-23T22:34:07.961Z,17.90
2023-05-23T22:36:36.812Z,17.80
2023-05-23T22:39:05.650Z,18.20
2023-05-23T22:41:35.853Z,16.70
2023-05-23T22:44:04.713Z,17.70
2023-05-23T22:46:33.398Z,16.50
2023-05-23T22:49:03.786Z,15.00
2023-05-23T22:51:34.806Z,14.80
2023-05-23T22:54:03.503Z,14.10
2023-05-23T22:56:31.920Z,13.00
2023-05-23T22:59:00.635Z,13.50
2023-05-23T23:01:29.936Z,13.10
2023-05-23T23:03:58.693Z,11.90
2023-05-23T23:06:27.059Z,11.80
2023-05-23T23:08:56.711Z,13.90
2023-05-23T23:11:25.245Z,12.40
2023-05-23T23:13:55.046Z,13.40
2023-05-23T23:16:23.572Z,11.80
2023-05-23T23:18:52.755Z,11.70
2023-05-23T23:21:21.537Z,11.30
2023-05-23T23:23:50.437Z,10.50
2023-05-23T23:26:18.854Z,11.00
2023-05-23T23:28:47.375Z,11.20
2023-05-23T23:31:16.770Z,10.80
2023-05-23T23:33:45.235Z,11.10
2023-05-23T23:36:13.955Z,13.00
2023-05-23T23:38:42.336Z,13.20
2023-05-23T23:41:10.956Z,13.70
2023-05-23T23:43:39.354Z,14.10
2023-05-23T23:46:07.712Z,13.60
2023-05-23T23:48:36.120Z,14.10
2023-05-23T23:51:04.719Z,13.00
2023-05-23T23:53:33.681Z,13.50
2023-05-23T23:56:02.052Z,13.70
2023-05-23T23:58:31.496Z,13.00
